createdAt,value
2022-11-25T00:01:09.138Z,6.80
2022-11-25T00:03:37.538Z,6.80
2022-11-25T00:06:17.845Z,6.80
2022-11-25T00:08:47.907Z,6.80
2022-11-25T00:11:16.633Z,6.80
2022-11-25T00:13:46.198Z,6.70
2022-11-25T00:16:16.752Z,6.70
2022-11-25T00:18:45.528Z,6.60
2022-11-25T00:21:16.920Z,6.60
2022-11-25T00:23:45.240Z,6.60
2022-11-25T00:26:14.793Z,6.60
2022-11-25T00:28:43.962Z,6.60
2022-11-25T00:31:13.873Z,6.60
2022-11-25T00:33:42.042Z,6.60
2022-11-25T00:36:18.187Z,6.60
2022-11-25T00:38:46.720Z,6.60
2022-11-25T00:41:32.708Z,6.50
2022-11-25T00:44:18.316Z,6.40
2022-11-25T00:46:46.374Z,6.40
2022-11-25T00:49:14.433Z,6.30
2022-11-25T00:51:43.766Z,6.30
2022-11-25T00:54:11.806Z,6.30
2022-11-25T00:56:39.982Z,6.30
2022-11-25T00:59:08.606Z,6.40
2022-11-25T01:01:37.461Z,6.40
2022-11-25T01:04:06.567Z,6.30
2022-11-25T01:06:34.850Z,6.30
2022-11-25T01:09:04.662Z,6.30
2022-11-25T01:11:33.022Z,6.30
2022-11-25T01:14:01.809Z,6.20
2022-11-25T01:16:31.529Z,6.20
2022-11-25T01:19:00.594Z,6.20
2022-11-25T01:21:30.856Z,6.20
2022-11-25T01:24:01.384Z,6.20
2022-11-25T01:26:31.939Z,6.20
2022-11-25T01:29:02.438Z,6.20
2022-11-25T01:31:34.588Z,6.20
2022-11-25T01:34:04.781Z,6.20
2022-11-25T01:36:32.860Z,6.10
2022-11-25T01:39:01.721Z,6.10
2022-11-25T01:41:32.920Z,6.10
2022-11-25T01:44:13.242Z,6.00
2022-11-25T01:47:12.419Z,6.00
2022-11-25T01:49:44.838Z,6.00
2022-11-25T01:52:17.944Z,5.90
2022-11-25T01:54:51.484Z,5.90
2022-11-25T01:57:25.177Z,5.80
2022-11-25T01:59:59.644Z,5.80
2022-11-25T02:02:28.889Z,5.80
2022-11-25T02:04:57.759Z,5.80
2022-11-25T02:07:31.922Z,5.70
2022-11-25T02:10:02.891Z,5.70
2022-11-25T02:12:33.241Z,5.70
2022-11-25T02:15:01.641Z,5.70
2022-11-25T02:17:29.975Z,5.60
2022-11-25T02:20:03.790Z,5.60
2022-11-25T02:22:43.062Z,5.60
2022-11-25T02:25:19.097Z,5.60
2022-11-25T02:27:52.168Z,5.60
2022-11-25T02:30:20.751Z,5.60
2022-11-25T02:32:50.250Z,5.50
2022-11-25T02:35:40.232Z,5.50
2022-11-25T02:38:11.491Z,5.50
2022-11-25T02:40:48.000Z,5.50
2022-11-25T02:43:16.910Z,5.40
2022-11-25T02:45:57.273Z,5.40
2022-11-25T02:48:45.844Z,5.30
2022-11-25T02:51:16.439Z,5.20
2022-11-25T02:53:44.903Z,5.20
2022-11-25T02:56:16.011Z,5.10
2022-11-25T02:58:44.193Z,5.10
2022-11-25T03:01:12.378Z,5.10
2022-11-25T03:03:40.430Z,5.10
2022-11-25T03:06:08.964Z,5.10
2022-11-25T03:08:38.015Z,5.20
2022-11-25T03:11:08.995Z,5.20
2022-11-25T03:13:38.431Z,5.20
2022-11-25T03:16:07.086Z,5.20
2022-11-25T03:18:35.355Z,5.30
2022-11-25T03:21:03.639Z,5.30
2022-11-25T03:23:31.553Z,5.30
2022-11-25T03:25:59.521Z,5.30
2022-11-25T03:28:27.491Z,5.30
2022-11-25T03:30:57.133Z,5.30
2022-11-25T03:33:26.202Z,5.30
2022-11-25T03:36:00.381Z,5.30
2022-11-25T03:38:28.443Z,5.30
2022-11-25T03:40:56.481Z,5.30
2022-11-25T03:43:26.396Z,5.30
2022-11-25T03:45:54.374Z,5.30
2022-11-25T03:48:24.494Z,5.30
2022-11-25T03:50:52.458Z,5.30
2022-11-25T03:53:20.877Z,5.30
2022-11-25T03:55:49.491Z,5.30
2022-11-25T03:58:20.520Z,5.30
2022-11-25T04:00:51.599Z,5.20
2022-11-25T04:03:19.776Z,5.20
2022-11-25T04:05:49.065Z,5.30
2022-11-25T04:08:17.011Z,5.30
2022-11-25T04:10:46.438Z,5.30
2022-11-25T04:13:14.042Z,5.30
2022-11-25T04:15:47.086Z,5.30
2022-11-25T04:18:17.323Z,5.30
2022-11-25T04:20:45.352Z,5.30
2022-11-25T04:23:15.563Z,5.30
2022-11-25T04:25:54.849Z,5.30
2022-11-25T04:28:28.009Z,5.30
2022-11-25T04:30:56.291Z,5.30
2022-11-25T04:33:24.227Z,5.30
2022-11-25T04:35:52.204Z,5.30
2022-11-25T04:38:23.063Z,5.20
2022-11-25T04:40:51.358Z,5.20
2022-11-25T04:43:22.372Z,5.10
2022-11-25T04:46:15.356Z,5.10
2022-11-25T04:48:47.374Z,5.10
2022-11-25T04:51:16.624Z,5.10
2022-11-25T04:53:47.128Z,5.10
2022-11-25T04:56:18.663Z,5.10
2022-11-25T04:59:05.434Z,5.20
2022-11-25T05:01:34.542Z,5.20
2022-11-25T05:04:18.280Z,5.20
2022-11-25T05:06:46.368Z,5.20
2022-11-25T05:09:16.524Z,5.20
2022-11-25T05:11:52.287Z,5.20
2022-11-25T05:14:20.383Z,5.20
2022-11-25T05:16:48.374Z,5.20
2022-11-25T05:19:16.866Z,5.20
2022-11-25T05:21:44.950Z,5.20
2022-11-25T05:24:13.229Z,5.20
2022-11-25T05:26:43.132Z,5.20
2022-11-25T05:29:11.206Z,5.20
2022-11-25T05:31:39.450Z,5.30
2022-11-25T05:34:08.164Z,5.30
2022-11-25T05:36:37.388Z,5.30
2022-11-25T05:39:05.745Z,5.30
2022-11-25T05:41:59.837Z,5.30
2022-11-25T05:44:27.843Z,5.30
2022-11-25T05:46:56.393Z,5.30
2022-11-25T05:49:24.857Z,5.30
2022-11-25T05:51:52.893Z,5.30
2022-11-25T05:54:23.393Z,5.30
2022-11-25T05:56:51.762Z,5.30
2022-11-25T05:59:29.894Z,5.30
2022-11-25T06:02:18.198Z,5.30
2022-11-25T06:04:46.310Z,5.30
2022-11-25T06:07:14.308Z,5.30
2022-11-25T06:09:42.765Z,5.30
2022-11-25T06:12:11.842Z,5.30
2022-11-25T06:14:48.403Z,5.20
2022-11-25T06:17:16.524Z,5.20
2022-11-25T06:19:52.663Z,5.20
2022-11-25T06:22:21.038Z,5.20
2022-11-25T06:24:56.440Z,5.10
2022-11-25T06:27:44.016Z,5.10
2022-11-25T06:30:18.395Z,5.10
2022-11-25T06:32:55.794Z,5.00
2022-11-25T06:35:24.860Z,5.10
2022-11-25T06:37:58.923Z,5.10
2022-11-25T06:40:26.973Z,5.00
2022-11-25T06:42:55.034Z,5.00
2022-11-25T06:45:24.329Z,5.00
2022-11-25T06:47:53.653Z,5.00
2022-11-25T06:50:21.626Z,5.00
2022-11-25T06:52:49.673Z,5.00
2022-11-25T06:55:17.724Z,5.00
2022-11-25T06:57:45.740Z,5.00
2022-11-25T07:00:14.601Z,5.00
2022-11-25T07:02:48.356Z,5.00
2022-11-25T07:05:16.907Z,4.90
2022-11-25T07:07:44.948Z,4.90
2022-11-25T07:10:13.983Z,4.90
2022-11-25T07:12:41.952Z,4.80
2022-11-25T07:15:10.619Z,4.90
2022-11-25T07:17:38.539Z,4.90
2022-11-25T07:20:11.754Z,4.90
2022-11-25T07:22:39.726Z,4.90
2022-11-25T07:25:09.353Z,5.00
2022-11-25T07:27:37.264Z,5.00
2022-11-25T07:32:54.528Z,5.10
2022-11-25T07:35:23.915Z,5.10
2022-11-25T07:37:53.053Z,5.10
2022-11-25T07:40:21.170Z,5.20
2022-11-25T07:42:49.086Z,5.20
2022-11-25T07:45:17.587Z,5.20
2022-11-25T07:47:47.151Z,5.30
2022-11-25T07:50:15.256Z,5.30
2022-11-25T07:52:45.521Z,5.30
2022-11-25T07:55:13.429Z,5.20
2022-11-25T07:57:41.363Z,5.20
2022-11-25T08:00:10.558Z,5.20
2022-11-25T08:02:41.226Z,5.10
2022-11-25T08:05:10.737Z,5.10
2022-11-25T08:07:39.329Z,5.20
2022-11-25T08:10:09.812Z,5.20
2022-11-25T08:12:37.790Z,5.30
2022-11-25T08:15:06.671Z,5.30
2022-11-25T08:17:34.638Z,5.40
2022-11-25T08:20:02.621Z,5.40
2022-11-25T08:22:30.552Z,5.50
2022-11-25T08:24:58.584Z,5.50
2022-11-25T08:27:27.869Z,5.50
2022-11-25T08:29:55.793Z,5.60
2022-11-25T08:32:23.773Z,5.60
2022-11-25T08:34:51.728Z,5.60
2022-11-25T08:37:19.749Z,5.60
2022-11-25T08:39:52.755Z,5.60
2022-11-25T08:42:21.075Z,5.60
2022-11-25T08:44:55.356Z,5.70
2022-11-25T08:47:23.277Z,5.70
2022-11-25T08:49:52.946Z,5.70
2022-11-25T08:52:20.992Z,5.70
2022-11-25T08:54:49.405Z,5.70
2022-11-25T08:57:17.571Z,5.70
2022-11-25T08:59:45.461Z,5.60
2022-11-25T09:02:17.438Z,5.50
2022-11-25T09:04:45.680Z,5.50
2022-11-25T09:07:13.785Z,5.50
2022-11-25T09:09:41.707Z,5.50
2022-11-25T09:12:09.690Z,5.50
2022-11-25T09:14:37.708Z,5.50
2022-11-25T09:17:10.155Z,5.60
2022-11-25T09:19:40.191Z,5.70
2022-11-25T09:22:08.893Z,5.80
2022-11-25T09:24:37.214Z,5.80
2022-11-25T09:27:06.158Z,5.90
2022-11-25T09:29:34.397Z,6.00
2022-11-25T09:32:02.658Z,6.00
2022-11-25T09:34:30.621Z,6.10
2022-11-25T09:37:01.057Z,6.10
2022-11-25T09:39:30.511Z,6.10
2022-11-25T09:42:26.436Z,6.20
2022-11-25T09:45:26.694Z,6.20
2022-11-25T09:48:07.617Z,6.20
2022-11-25T09:50:56.405Z,6.20
2022-11-25T09:53:37.238Z,6.30
2022-11-25T09:56:11.941Z,6.30
2022-11-25T09:58:45.130Z,6.30
2022-11-25T10:01:18.167Z,6.40
2022-11-25T10:03:49.740Z,6.40
2022-11-25T10:06:21.107Z,6.40
2022-11-25T10:08:52.466Z,6.50
2022-11-25T10:11:30.375Z,6.50
2022-11-25T10:14:02.583Z,6.50
2022-11-25T10:16:37.249Z,6.60
2022-11-25T10:19:16.567Z,6.60
2022-11-25T10:21:46.324Z,6.60
2022-11-25T10:24:18.337Z,6.60
2022-11-25T10:26:50.898Z,6.60
2022-11-25T10:29:26.137Z,6.70
2022-11-25T10:32:02.375Z,6.70
2022-11-25T10:34:37.159Z,6.80
2022-11-25T10:37:13.606Z,6.80
2022-11-25T10:39:42.896Z,6.80
2022-11-25T10:42:17.266Z,6.90
2022-11-25T10:44:45.214Z,6.90
2022-11-25T10:47:34.499Z,6.90
2022-11-25T10:50:15.411Z,6.90
2022-11-25T10:52:51.657Z,7.00
2022-11-25T10:55:24.209Z,7.00
2022-11-25T10:57:52.512Z,7.00
2022-11-25T11:00:29.915Z,7.00
2022-11-25T11:02:58.951Z,7.00
2022-11-25T11:05:29.961Z,7.00
2022-11-25T11:08:21.458Z,7.00
2022-11-25T11:11:15.005Z,7.00
2022-11-25T11:13:43.943Z,7.00
2022-11-25T11:16:31.609Z,7.00
2022-11-25T11:19:00.114Z,7.00
2022-11-25T11:21:32.529Z,7.00
2022-11-25T11:24:01.927Z,7.00
2022-11-25T11:26:33.174Z,7.10
2022-11-25T11:29:07.365Z,7.10
2022-11-25T11:31:41.720Z,7.10
2022-11-25T11:34:35.382Z,7.10
2022-11-25T11:37:17.903Z,7.10
2022-11-25T11:40:03.041Z,7.10
2022-11-25T11:42:44.601Z,7.10
2022-11-25T11:45:32.964Z,7.10
2022-11-25T11:48:13.039Z,7.20
2022-11-25T11:50:46.504Z,7.20
2022-11-25T11:53:23.832Z,7.20
2022-11-25T11:56:33.195Z,7.20
2022-11-25T11:59:02.832Z,7.20
2022-11-25T12:01:42.869Z,7.30
2022-11-25T12:04:18.957Z,7.30
2022-11-25T12:06:57.655Z,7.30
2022-11-25T12:09:29.149Z,7.30
2022-11-25T12:12:03.162Z,7.30
2022-11-25T12:14:40.956Z,7.30
2022-11-25T12:17:14.901Z,7.40
2022-11-25T12:19:51.186Z,7.40
2022-11-25T12:22:23.451Z,7.40
2022-11-25T12:24:58.033Z,7.40
2022-11-25T12:27:32.374Z,7.50
2022-11-25T12:30:05.943Z,7.50
2022-11-25T12:32:54.668Z,7.50
2022-11-25T12:35:32.288Z,7.60
2022-11-25T12:38:05.974Z,7.60
2022-11-25T12:40:38.546Z,7.60
2022-11-25T12:43:25.112Z,7.60
2022-11-25T12:46:06.121Z,7.60
2022-11-25T12:48:39.860Z,7.60
2022-11-25T12:51:17.688Z,7.60
2022-11-25T12:53:51.550Z,7.60
2022-11-25T12:56:26.013Z,7.60
2022-11-25T12:59:06.710Z,7.60
2022-11-25T13:01:50.185Z,7.60
2022-11-25T13:04:58.080Z,7.60
2022-11-25T13:07:45.482Z,7.70
2022-11-25T13:10:41.389Z,7.70
2022-11-25T13:13:23.079Z,7.70
2022-11-25T13:15:54.312Z,7.70
2022-11-25T13:18:27.602Z,7.80
2022-11-25T13:20:56.262Z,7.80
2022-11-25T13:23:35.013Z,7.80
2022-11-25T13:26:38.533Z,7.80
2022-11-25T13:29:43.052Z,7.90
2022-11-25T13:32:27.720Z,7.90
2022-11-25T13:35:40.502Z,7.90
2022-11-25T13:38:47.743Z,7.90
2022-11-25T13:41:37.172Z,7.90
2022-11-25T13:44:19.243Z,7.90
2022-11-25T13:46:51.406Z,7.90
2022-11-25T13:49:35.623Z,7.90
2022-11-25T13:52:17.575Z,7.90
2022-11-25T13:54:49.239Z,7.90
2022-11-25T13:57:27.514Z,7.90
2022-11-25T13:59:58.911Z,8.00
2022-11-25T14:02:45.915Z,8.00
2022-11-25T14:05:39.772Z,8.00
2022-11-25T14:08:16.640Z,8.00
2022-11-25T14:10:51.374Z,8.00
2022-11-25T14:13:39.735Z,8.00
2022-11-25T14:16:21.507Z,8.00
2022-11-25T14:22:42.461Z,8.10
2022-11-25T14:25:17.848Z,8.10
2022-11-25T14:27:48.803Z,8.10
2022-11-25T14:30:19.520Z,8.10
2022-11-25T14:32:56.036Z,8.10
2022-11-25T14:35:28.291Z,8.10
2022-11-25T14:38:00.979Z,8.10
2022-11-25T14:40:35.777Z,8.00
2022-11-25T14:43:06.200Z,8.00
2022-11-25T14:45:36.603Z,8.00
2022-11-25T14:48:15.331Z,8.10
2022-11-25T14:50:59.556Z,8.10
2022-11-25T14:53:28.053Z,8.10
2022-11-25T14:55:58.116Z,8.10
2022-11-25T14:58:26.059Z,8.10
2022-11-25T15:01:02.039Z,8.10
2022-11-25T15:03:30.062Z,8.10
2022-11-25T15:06:01.698Z,8.10
2022-11-25T15:08:29.863Z,8.20
2022-11-25T15:11:00.265Z,8.20
2022-11-25T15:13:34.521Z,8.20
2022-11-25T15:16:09.306Z,8.20
2022-11-25T15:18:39.206Z,8.20
2022-11-25T15:21:07.723Z,8.20
2022-11-25T15:23:38.702Z,8.20
2022-11-25T15:26:17.813Z,8.20
2022-11-25T15:28:46.627Z,8.20
2022-11-25T15:31:20.699Z,8.20
2022-11-25T15:33:54.410Z,8.20
2022-11-25T15:36:23.854Z,8.20
2022-11-25T15:38:52.159Z,8.20
2022-11-25T15:41:32.555Z,8.20
2022-11-25T15:44:02.824Z,8.20
2022-11-25T15:46:34.774Z,8.20
2022-11-25T15:49:06.028Z,8.20
2022-11-25T15:51:41.570Z,8.20
2022-11-25T15:54:18.313Z,8.30
2022-11-25T15:56:49.959Z,8.30
2022-11-25T15:59:41.231Z,8.40
2022-11-25T16:02:33.770Z,8.50
2022-11-25T16:05:26.000Z,8.50
2022-11-25T16:08:24.052Z,8.50
2022-11-25T16:10:54.820Z,8.60
2022-11-25T16:13:37.107Z,8.60
2022-11-25T16:16:20.774Z,8.60
2022-11-25T16:19:17.889Z,8.70
2022-11-25T16:21:57.368Z,8.70
2022-11-25T16:24:35.119Z,8.70
2022-11-25T16:27:05.055Z,8.70
2022-11-25T16:29:35.739Z,8.70
2022-11-25T16:32:14.873Z,8.70
2022-11-25T16:34:44.530Z,8.80
2022-11-25T16:37:12.770Z,8.80
2022-11-25T16:39:40.759Z,8.80
2022-11-25T16:42:15.398Z,8.80
2022-11-25T16:44:49.090Z,8.80
2022-11-25T16:47:18.106Z,8.80
2022-11-25T16:49:48.183Z,8.80
2022-11-25T16:52:16.283Z,8.70
2022-11-25T16:54:44.489Z,8.70
2022-11-25T16:57:18.734Z,8.70
2022-11-25T16:59:53.105Z,8.60
2022-11-25T17:02:24.362Z,8.60
2022-11-25T17:04:53.806Z,8.60
2022-11-25T17:07:38.413Z,8.60
2022-11-25T17:10:08.128Z,8.60
2022-11-25T17:12:37.956Z,8.50
2022-11-25T17:15:09.249Z,8.50
2022-11-25T17:17:37.416Z,8.40
2022-11-25T17:20:11.769Z,8.40
2022-11-25T17:22:40.196Z,8.30
2022-11-25T17:25:10.652Z,8.30
2022-11-25T17:27:38.829Z,8.30
2022-11-25T17:30:14.508Z,8.30
2022-11-25T17:32:42.857Z,8.20
2022-11-25T17:35:18.943Z,8.20
2022-11-25T17:37:47.946Z,8.20
2022-11-25T17:40:16.785Z,8.20
2022-11-25T17:42:45.914Z,8.20
2022-11-25T17:45:15.904Z,8.10
2022-11-25T17:47:44.237Z,8.10
2022-11-25T17:50:20.001Z,8.10
2022-11-25T17:52:48.642Z,8.00
2022-11-25T17:55:19.499Z,8.00
2022-11-25T17:57:48.111Z,8.00
2022-11-25T18:00:18.788Z,8.00
2022-11-25T18:02:47.098Z,8.00
2022-11-25T18:05:18.411Z,7.90
2022-11-25T18:07:46.555Z,7.90
2022-11-25T18:10:16.867Z,7.90
2022-11-25T18:12:47.239Z,7.90
2022-11-25T18:15:17.429Z,7.90
2022-11-25T18:17:45.877Z,7.90
2022-11-25T18:20:22.257Z,7.90
2022-11-25T18:22:51.811Z,7.80
2022-11-25T18:25:23.379Z,7.80
2022-11-25T18:27:56.082Z,7.80
2022-11-25T18:30:27.021Z,7.80
2022-11-25T18:32:56.174Z,7.70
2022-11-25T18:35:32.509Z,7.70
2022-11-25T18:38:03.621Z,7.70
2022-11-25T18:40:31.841Z,7.70
2022-11-25T18:43:03.638Z,7.60
2022-11-25T18:45:34.967Z,7.60
2022-11-25T18:48:03.001Z,7.60
2022-11-25T18:50:32.419Z,7.60
2022-11-25T18:53:01.691Z,7.60
2022-11-25T18:55:29.975Z,7.60
2022-11-25T19:01:36.801Z,7.50
2022-11-25T19:04:05.201Z,7.50
2022-11-25T19:06:34.989Z,7.50
2022-11-25T19:09:04.038Z,7.40
2022-11-25T19:11:35.842Z,7.40
2022-11-25T19:14:08.826Z,7.40
2022-11-25T19:16:37.158Z,7.40
2022-11-25T19:19:05.285Z,7.40
2022-11-25T19:21:34.779Z,7.50
2022-11-25T19:24:02.720Z,7.50
2022-11-25T19:26:34.043Z,7.50
2022-11-25T19:29:07.671Z,7.50
2022-11-25T19:31:36.300Z,7.40
2022-11-25T19:34:04.619Z,7.40
2022-11-25T19:36:35.034Z,7.40
2022-11-25T19:39:02.979Z,7.30
2022-11-25T19:41:30.940Z,7.30
2022-11-25T19:43:58.909Z,7.30
2022-11-25T19:46:33.083Z,7.30
2022-11-25T19:49:06.904Z,7.30
2022-11-25T19:51:36.316Z,7.30
2022-11-25T19:54:04.688Z,7.30
2022-11-25T19:56:33.180Z,7.30
2022-11-25T19:59:01.116Z,7.30
2022-11-25T20:01:33.615Z,7.30
2022-11-25T20:04:03.217Z,7.30
2022-11-25T20:06:31.580Z,7.30
2022-11-25T20:09:06.440Z,7.30
2022-11-25T20:11:36.773Z,7.30
2022-11-25T20:14:05.459Z,7.30
2022-11-25T20:16:36.912Z,7.30
2022-11-25T20:19:06.834Z,7.30
2022-11-25T20:21:37.898Z,7.40
2022-11-25T20:24:15.229Z,7.40
2022-11-25T20:26:45.953Z,7.50
2022-11-25T20:29:17.377Z,7.50
2022-11-25T20:31:45.403Z,7.50
2022-11-25T20:34:13.391Z,7.50
2022-11-25T20:36:43.034Z,7.60
2022-11-25T20:39:18.029Z,7.60
2022-11-25T20:41:49.314Z,7.60
2022-11-25T20:44:17.520Z,7.70
2022-11-25T20:46:45.536Z,7.70
2022-11-25T20:49:22.154Z,7.70
2022-11-25T20:51:50.371Z,7.70
2022-11-25T20:54:19.710Z,7.70
2022-11-25T20:56:47.804Z,7.70
2022-11-25T20:59:21.646Z,7.70
2022-11-25T21:01:49.859Z,7.80
2022-11-25T21:04:18.545Z,7.80
2022-11-25T21:06:46.710Z,7.80
2022-11-25T21:09:20.507Z,7.80
2022-11-25T21:11:49.407Z,7.80
2022-11-25T21:14:19.403Z,7.80
2022-11-25T21:16:48.048Z,7.80
2022-11-25T21:19:16.458Z,7.70
2022-11-25T21:21:47.114Z,7.60
2022-11-25T21:24:38.038Z,7.60
2022-11-25T21:27:14.427Z,7.60
2022-11-25T21:29:44.034Z,7.60
2022-11-25T21:32:21.440Z,7.70
2022-11-25T21:34:49.986Z,7.70
2022-11-25T21:37:18.827Z,7.70
2022-11-25T21:39:46.924Z,7.70
2022-11-25T21:42:21.196Z,7.70
2022-11-25T21:44:50.719Z,7.70
2022-11-25T21:47:21.383Z,7.80
2022-11-25T21:49:56.171Z,7.80
2022-11-25T21:52:24.220Z,7.80
2022-11-25T21:54:52.231Z,7.80
2022-11-25T21:57:27.880Z,7.80
2022-11-25T21:59:55.977Z,7.80
2022-11-25T22:02:25.630Z,7.80
2022-11-25T22:04:53.896Z,7.90
2022-11-25T22:07:25.098Z,7.90
2022-11-25T22:09:55.875Z,7.80
2022-11-25T22:12:30.389Z,7.80
2022-11-25T22:14:59.522Z,7.90
2022-11-25T22:17:28.236Z,7.90
2022-11-25T22:19:56.953Z,7.90
2022-11-25T22:22:25.080Z,7.90
2022-11-25T22:24:53.266Z,7.90
2022-11-25T22:27:24.064Z,7.90
2022-11-25T22:29:53.811Z,7.90
2022-11-25T22:32:21.799Z,7.90
2022-11-25T22:34:50.874Z,7.90
2022-11-25T22:37:20.957Z,8.00
2022-11-25T22:39:49.501Z,8.00
2022-11-25T22:42:27.104Z,8.00
2022-11-25T22:44:58.392Z,8.00
2022-11-25T22:47:29.984Z,8.00
2022-11-25T22:49:58.171Z,8.00
2022-11-25T22:52:28.522Z,8.00
2022-11-25T22:54:59.330Z,8.00
2022-11-25T22:57:27.362Z,8.10
2022-11-25T22:59:56.726Z,8.00
2022-11-25T23:02:30.614Z,8.00
2022-11-25T23:04:58.627Z,8.00
2022-11-25T23:07:26.816Z,8.00
2022-11-25T23:09:56.154Z,7.90
2022-11-25T23:12:24.088Z,7.90
2022-11-25T23:14:52.258Z,7.90
2022-11-25T23:17:23.970Z,7.90
2022-11-25T23:19:53.141Z,7.90
2022-11-25T23:22:21.474Z,7.80
2022-11-25T23:24:51.022Z,7.80
2022-11-25T23:27:18.964Z,7.80
2022-11-25T23:29:46.911Z,7.80
2022-11-25T23:32:19.298Z,7.80
2022-11-25T23:34:51.176Z,7.80
2022-11-25T23:37:19.556Z,7.70
2022-11-25T23:39:53.097Z,7.70
2022-11-25T23:42:22.012Z,7.60
2022-11-25T23:44:50.273Z,7.60
2022-11-25T23:47:21.622Z,7.60
2022-11-25T23:49:53.348Z,7.60
2022-11-25T23:52:24.155Z,7.60
2022-11-25T23:54:54.014Z,7.50
2022-11-25T23:57:25.214Z,7.40
2022-11-25T23:59:53.635Z,7.40
